createdAt,value
2019-02-07T00:01:43.473Z,97.57
2019-02-07T00:06:19.276Z,91.93
2019-02-07T00:10:55.045Z,77.50
2019-02-07T00:15:30.820Z,82.27
2019-02-07T00:20:08.496Z,74.40
2019-02-07T00:24:44.284Z,82.17
2019-02-07T00:29:20.132Z,73.67
2019-02-07T00:33:55.916Z,79.93
2019-02-07T00:38:31.683Z,82.40
2019-02-07T00:43:07.548Z,74.20
2019-02-07T00:47:43.368Z,84.43
2019-02-07T00:52:19.158Z,87.43
2019-02-07T00:56:56.160Z,90.47
2019-02-07T01:01:31.961Z,81.63
2019-02-07T01:06:07.827Z,78.73
2019-02-07T01:10:43.692Z,84.60
2019-02-07T01:15:20.464Z,88.13
2019-02-07T01:19:56.652Z,79.80
2019-02-07T01:24:32.421Z,95.93
2019-02-07T01:29:08.215Z,94.70
2019-02-07T01:33:43.998Z,82.50
2019-02-07T01:38:19.865Z,85.23
2019-02-07T01:42:55.950Z,88.43
2019-02-07T01:47:31.988Z,72.40
2019-02-07T01:52:07.972Z,81.10
2019-02-07T01:56:43.769Z,87.43
2019-02-07T02:01:19.601Z,65.03
2019-02-07T02:05:55.464Z,86.80
2019-02-07T02:10:31.447Z,70.20
2019-02-07T02:15:08.797Z,77.97
2019-02-07T02:19:44.833Z,76.00
2019-02-07T02:24:20.628Z,73.67
2019-02-07T02:28:56.797Z,85.87
2019-02-07T02:33:32.589Z,87.83
2019-02-07T02:38:08.444Z,86.87
2019-02-07T02:42:44.302Z,84.27
2019-02-07T02:47:20.155Z,66.07
2019-02-07T02:51:55.925Z,77.67
2019-02-07T02:56:31.695Z,81.37
2019-02-07T03:01:26.496Z,88.73
2019-02-07T03:06:20.262Z,70.40
2019-02-07T03:11:33.256Z,75.10
2019-02-07T03:16:30.661Z,68.80
2019-02-07T03:21:24.513Z,86.30
2019-02-07T03:26:19.221Z,90.53
2019-02-07T03:31:13.958Z,76.90
2019-02-07T03:36:02.117Z,81.33
2019-02-07T03:40:55.687Z,73.43
2019-02-07T03:45:39.451Z,86.67
2019-02-07T03:50:36.650Z,80.17
2019-02-07T03:55:29.069Z,85.50
2019-02-07T04:00:29.692Z,75.10
2019-02-07T04:05:25.457Z,84.17
2019-02-07T04:10:20.203Z,81.67
2019-02-07T04:15:16.713Z,72.73
2019-02-07T04:20:02.670Z,80.63
2019-02-07T04:25:00.247Z,72.57
2019-02-07T04:29:50.218Z,79.60
2019-02-07T04:34:44.085Z,63.03
2019-02-07T04:39:31.041Z,69.93
2019-02-07T04:44:41.380Z,66.93
2019-02-07T04:49:34.661Z,69.63
2019-02-07T04:54:24.169Z,73.73
2019-02-07T04:59:28.176Z,79.43
2019-02-07T05:04:18.478Z,70.23
2019-02-07T05:09:25.220Z,73.63
2019-02-07T05:14:18.790Z,66.67
2019-02-07T05:19:05.905Z,75.83
2019-02-07T05:24:06.444Z,70.37
2019-02-07T05:28:59.772Z,69.13
2019-02-07T05:34:06.823Z,64.43
2019-02-07T05:39:00.897Z,62.70
2019-02-07T05:44:01.588Z,64.43
2019-02-07T05:48:55.110Z,61.93
2019-02-07T05:53:49.893Z,64.20
2019-02-07T05:58:52.660Z,61.97
2019-02-07T06:03:48.165Z,49.10
2019-02-07T06:08:46.095Z,58.20
2019-02-07T06:13:40.295Z,56.93
2019-02-07T06:18:38.085Z,51.13
2019-02-07T06:23:47.821Z,62.23
2019-02-07T06:28:45.524Z,46.83
2019-02-07T06:33:43.300Z,49.67
2019-02-07T06:38:26.689Z,52.27
2019-02-07T06:43:27.489Z,52.57
2019-02-07T06:48:25.228Z,48.70
2019-02-07T06:53:21.068Z,47.33
2019-02-07T06:58:31.043Z,60.13
2019-02-07T07:03:24.709Z,53.90
2019-02-07T07:08:34.776Z,52.63
2019-02-07T07:13:32.456Z,60.43
2019-02-07T07:18:36.000Z,55.27
2019-02-07T07:23:29.233Z,59.50
2019-02-07T07:28:22.608Z,49.37
2019-02-07T07:33:07.804Z,53.20
2019-02-07T07:38:01.399Z,57.63
2019-02-07T07:42:59.250Z,55.10
2019-02-07T07:47:52.723Z,49.77
2019-02-07T07:52:46.233Z,61.67
2019-02-07T07:57:40.984Z,51.90
2019-02-07T08:02:29.327Z,46.60
2019-02-07T08:07:27.347Z,50.93
2019-02-07T08:12:20.841Z,55.50
2019-02-07T08:17:27.917Z,51.33
2019-02-07T08:22:37.941Z,47.63
2019-02-07T08:27:41.792Z,53.93
2019-02-07T08:32:30.335Z,55.00
2019-02-07T08:37:30.978Z,56.00
2019-02-07T08:42:24.576Z,50.80
2019-02-07T08:47:23.711Z,46.90
2019-02-07T08:52:19.577Z,63.97
2019-02-07T08:57:10.441Z,50.27
2019-02-07T09:02:14.295Z,53.93
2019-02-07T09:07:02.908Z,52.87
2019-02-07T09:11:51.500Z,59.87
2019-02-07T09:16:57.284Z,50.40
2019-02-07T09:21:58.028Z,59.03
2019-02-07T09:26:41.576Z,54.30
2019-02-07T09:31:39.140Z,61.60
2019-02-07T09:36:36.961Z,50.77
2019-02-07T09:41:31.661Z,50.27
2019-02-07T09:46:26.360Z,62.47
2019-02-07T09:56:25.544Z,55.93
2019-02-07T10:01:16.192Z,56.90
2019-02-07T10:06:17.052Z,54.23
2019-02-07T10:11:11.753Z,55.37
2019-02-07T10:16:21.321Z,67.40
2019-02-07T10:21:11.058Z,58.47
2019-02-07T10:26:02.447Z,48.93
2019-02-07T10:31:03.269Z,90.77
2019-02-07T10:35:57.997Z,58.33
2019-02-07T10:40:45.525Z,49.60
2019-02-07T10:45:40.294Z,50.93
2019-02-07T10:50:34.341Z,51.93
2019-02-07T10:55:21.498Z,56.03
2019-02-07T11:00:28.565Z,46.33
2019-02-07T11:05:30.455Z,52.33
2019-02-07T11:10:26.700Z,46.63
2019-02-07T11:15:12.787Z,48.90
2019-02-07T11:20:07.612Z,49.13
2019-02-07T11:25:05.365Z,44.07
2019-02-07T11:29:52.849Z,50.83
2019-02-07T11:34:46.501Z,38.93
2019-02-07T11:39:47.018Z,48.57
2019-02-07T11:44:50.713Z,41.50
2019-02-07T11:49:45.712Z,47.20
2019-02-07T11:54:38.643Z,46.73
2019-02-07T11:59:42.548Z,50.07
2019-02-07T12:04:47.959Z,39.87
2019-02-07T12:09:41.252Z,43.83
2019-02-07T12:14:36.010Z,43.07
2019-02-07T12:19:29.924Z,42.50
2019-02-07T12:24:24.355Z,38.70
2019-02-07T12:29:19.060Z,35.37
2019-02-07T12:34:06.996Z,31.63
2019-02-07T12:43:42.090Z,37.47
2019-02-07T12:48:35.865Z,49.07
2019-02-07T12:53:24.325Z,47.13
2019-02-07T12:58:17.847Z,37.73
2019-02-07T13:03:05.962Z,38.33
2019-02-07T13:08:05.363Z,40.97
2019-02-07T13:12:57.836Z,33.67
2019-02-07T13:17:42.189Z,30.77
2019-02-07T13:22:26.157Z,41.07
2019-02-07T13:27:39.253Z,35.53
2019-02-07T13:32:32.769Z,36.77
2019-02-07T13:37:30.466Z,41.37
2019-02-07T13:42:25.449Z,35.70
2019-02-07T13:47:19.225Z,34.30
2019-02-07T13:52:23.114Z,26.47
2019-02-07T13:57:19.201Z,35.27
2019-02-07T14:02:31.765Z,42.10
2019-02-07T14:07:35.752Z,47.17
2019-02-07T14:12:22.373Z,49.03
2019-02-07T14:17:14.459Z,50.43
2019-02-07T14:22:06.253Z,64.10
2019-02-07T14:27:00.097Z,43.97
2019-02-07T14:31:53.426Z,51.83
2019-02-07T14:36:46.801Z,57.97
2019-02-07T14:41:54.284Z,55.37
2019-02-07T14:46:47.983Z,44.40
2019-02-07T14:51:23.840Z,50.47
2019-02-07T14:55:58.938Z,49.13
2019-02-07T15:00:34.749Z,56.00
2019-02-07T15:05:11.617Z,46.70
2019-02-07T15:09:47.421Z,47.10
2019-02-07T15:14:23.181Z,44.97
2019-02-07T15:18:58.976Z,53.20
2019-02-07T15:23:34.741Z,47.00
2019-02-07T15:28:10.528Z,38.97
2019-02-07T15:32:46.372Z,41.77
2019-02-07T15:37:22.168Z,38.60
2019-02-07T15:41:58.249Z,45.40
2019-02-07T15:46:34.564Z,37.63
2019-02-07T15:51:10.808Z,45.57
2019-02-07T15:55:46.592Z,37.37
2019-02-07T16:00:45.929Z,36.50
2019-02-07T16:05:22.708Z,41.20
2019-02-07T16:09:58.876Z,44.43
2019-02-07T16:14:35.132Z,43.67
2019-02-07T16:19:10.968Z,91.73
2019-02-07T16:23:46.829Z,53.53
2019-02-07T16:28:22.669Z,50.90
2019-02-07T16:32:58.453Z,45.63
2019-02-07T16:37:34.349Z,42.27
2019-02-07T16:42:10.124Z,47.63
2019-02-07T16:46:45.888Z,54.83
2019-02-07T16:51:21.688Z,41.77
2019-02-07T16:55:57.457Z,41.70
2019-02-07T17:00:33.867Z,42.37
2019-02-07T17:05:11.384Z,56.17
2019-02-07T17:09:47.278Z,43.23
2019-02-07T17:14:23.044Z,43.50
2019-02-07T17:18:58.844Z,49.13
2019-02-07T17:23:34.624Z,54.90
2019-02-07T17:28:10.733Z,44.13
2019-02-07T17:32:47.021Z,63.00
2019-02-07T17:37:22.813Z,47.27
2019-02-07T17:41:59.538Z,52.90
2019-02-07T17:46:35.768Z,39.97
2019-02-07T17:51:22.634Z,48.90
2019-02-07T17:55:49.112Z,50.97
2019-02-07T18:00:48.172Z,54.63
2019-02-07T18:05:23.970Z,54.67
2019-02-07T18:09:59.761Z,65.47
2019-02-07T18:14:35.621Z,50.83
2019-02-07T18:19:11.704Z,51.87
2019-02-07T18:23:47.489Z,61.03
2019-02-07T18:28:23.258Z,46.97
2019-02-07T18:32:59.145Z,48.43
2019-02-07T18:37:35.010Z,46.07
2019-02-07T18:42:10.818Z,59.43
2019-02-07T18:46:47.062Z,58.97
2019-02-07T18:51:22.949Z,62.83
2019-02-07T18:55:58.744Z,50.37
2019-02-07T19:00:35.286Z,52.63
2019-02-07T19:05:12.472Z,48.40
2019-02-07T19:09:48.521Z,46.90
2019-02-07T19:14:24.325Z,43.70
2019-02-07T19:19:00.136Z,44.47
2019-02-07T19:23:35.964Z,45.80
2019-02-07T19:28:11.769Z,43.60
2019-02-07T19:32:47.533Z,48.73
2019-02-07T19:37:23.316Z,33.87
2019-02-07T19:41:59.093Z,36.30
2019-02-07T19:46:34.950Z,38.57
2019-02-07T19:51:10.721Z,33.30
2019-02-07T19:55:46.511Z,38.03
2019-02-07T20:05:01.721Z,35.40
2019-02-07T20:09:37.966Z,36.37
2019-02-07T20:14:13.844Z,34.63
2019-02-07T20:18:49.713Z,32.00
2019-02-07T20:23:25.515Z,34.30
2019-02-07T20:28:01.356Z,38.93
2019-02-07T20:32:37.222Z,32.93
2019-02-07T20:37:13.001Z,28.63
2019-02-07T20:41:48.784Z,35.33
2019-02-07T20:46:24.552Z,27.57
2019-02-07T20:51:00.814Z,33.50
2019-02-07T20:55:37.059Z,25.80
2019-02-07T21:00:17.993Z,30.97
2019-02-07T21:04:54.132Z,29.63
2019-02-07T21:09:30.401Z,37.77
2019-02-07T21:14:07.043Z,30.90
2019-02-07T21:18:43.312Z,32.80
2019-02-07T21:23:19.686Z,35.30
2019-02-07T21:27:56.170Z,30.93
2019-02-07T21:32:32.612Z,37.67
2019-02-07T21:37:10.997Z,27.50
2019-02-07T21:41:46.761Z,28.77
2019-02-07T21:46:22.608Z,40.47
2019-02-07T21:50:58.445Z,40.20
2019-02-07T21:55:34.521Z,38.47
2019-02-07T22:00:23.795Z,26.07
2019-02-07T22:04:59.958Z,50.50
2019-02-07T22:09:36.301Z,47.00
2019-02-07T22:14:12.362Z,41.50
2019-02-07T22:18:48.700Z,43.67
2019-02-07T22:23:25.001Z,47.50
2019-02-07T22:28:01.251Z,59.63
2019-02-07T22:32:37.526Z,47.23
2019-02-07T22:37:13.756Z,48.37
2019-02-07T22:41:50.013Z,40.63
2019-02-07T22:46:26.053Z,51.10
2019-02-07T22:51:02.219Z,45.67
2019-02-07T22:55:38.665Z,47.70
2019-02-07T23:01:09.384Z,45.00
2019-02-07T23:05:45.151Z,38.23
2019-02-07T23:10:20.935Z,44.60
2019-02-07T23:14:56.715Z,40.53
2019-02-07T23:19:32.564Z,42.10
2019-02-07T23:24:09.041Z,35.90
2019-02-07T23:28:44.904Z,40.83
2019-02-07T23:33:20.661Z,43.43
2019-02-07T23:37:56.516Z,44.07
2019-02-07T23:42:32.280Z,46.13
2019-02-07T23:47:08.072Z,202.23
2019-02-07T23:51:43.921Z,61.40
2019-02-07T23:56:19.791Z,46.40
